createdAt,value
2019-05-21T00:02:49.842Z,5.37
2019-05-21T00:07:51.144Z,5.43
2019-05-21T00:12:52.463Z,6.03
2019-05-21T00:17:53.769Z,7.17
2019-05-21T00:22:55.084Z,7.27
2019-05-21T00:27:57.248Z,8.30
2019-05-21T00:33:17.229Z,7.50
2019-05-21T00:38:38.072Z,7.70
2019-05-21T00:43:42.242Z,8.57
2019-05-21T00:48:44.298Z,8.17
2019-05-21T00:53:45.598Z,7.43
2019-05-21T00:58:46.920Z,6.80
2019-05-21T01:03:48.217Z,5.93
2019-05-21T01:08:49.541Z,5.10
2019-05-21T01:13:50.898Z,4.00
2019-05-21T01:18:52.213Z,3.40
2019-05-21T01:23:53.517Z,3.57
2019-05-21T01:28:54.844Z,2.73
2019-05-21T01:33:56.161Z,3.87
2019-05-21T01:38:57.492Z,3.20
2019-05-21T01:43:58.826Z,2.23
2019-05-21T01:49:00.139Z,2.60
2019-05-21T01:54:01.446Z,2.40
2019-05-21T01:59:03.529Z,1.60
2019-05-21T02:04:04.846Z,1.30
2019-05-21T02:09:06.149Z,1.00
2019-05-21T02:14:07.447Z,1.10
2019-05-21T02:19:08.777Z,1.03
2019-05-21T02:24:10.793Z,1.03
2019-05-21T02:29:12.101Z,1.40
2019-05-21T02:34:14.146Z,1.40
2019-05-21T02:39:15.459Z,1.50
2019-05-21T02:44:16.792Z,2.53
2019-05-21T02:49:18.941Z,1.40
2019-05-21T02:54:37.536Z,1.90
2019-05-21T02:59:21.617Z,1.37
2019-05-21T03:04:23.684Z,2.07
2019-05-21T03:09:25.013Z,1.80
2019-05-21T03:14:26.361Z,1.80
2019-05-21T03:19:27.679Z,1.83
2019-05-21T03:24:29.007Z,1.83
2019-05-21T03:29:30.322Z,1.60
2019-05-21T03:34:32.373Z,1.67
2019-05-21T03:39:33.686Z,2.00
2019-05-21T03:44:35.018Z,1.90
2019-05-21T03:49:37.111Z,2.00
2019-05-21T03:54:38.476Z,1.77
2019-05-21T03:59:40.567Z,1.93
2019-05-21T04:04:41.890Z,2.10
2019-05-21T04:09:43.222Z,2.17
2019-05-21T04:14:44.550Z,2.23
2019-05-21T04:19:46.870Z,2.33
2019-05-21T04:24:48.220Z,2.27
2019-05-21T04:29:49.552Z,1.97
2019-05-21T04:34:50.871Z,2.07
2019-05-21T04:39:52.945Z,2.57
2019-05-21T04:44:54.298Z,2.40
2019-05-21T04:49:55.645Z,2.73
2019-05-21T04:54:56.988Z,2.57
2019-05-21T04:59:58.334Z,2.60
2019-05-21T05:04:59.633Z,2.40
2019-05-21T05:10:01.696Z,2.00
2019-05-21T05:15:03.015Z,2.20
2019-05-21T05:20:04.404Z,1.90
2019-05-21T05:25:05.758Z,2.20
2019-05-21T05:30:07.229Z,2.27
2019-05-21T05:35:08.567Z,2.00
2019-05-21T05:40:09.898Z,2.17
2019-05-21T05:45:11.953Z,2.67
2019-05-21T05:50:15.179Z,2.47
2019-05-21T05:55:16.520Z,2.33
2019-05-21T06:00:17.854Z,1.90
2019-05-21T06:05:19.220Z,2.30
2019-05-21T06:10:20.593Z,2.10
2019-05-21T06:15:21.900Z,1.87
2019-05-21T06:20:23.970Z,2.07
2019-05-21T06:25:25.296Z,1.63
2019-05-21T06:30:26.633Z,1.63
2019-05-21T06:35:27.941Z,1.40
2019-05-21T06:40:29.260Z,1.10
2019-05-21T06:45:30.615Z,0.90
2019-05-21T06:50:31.945Z,1.00
2019-05-21T06:55:33.242Z,0.80
2019-05-21T07:00:34.577Z,0.77
2019-05-21T07:05:35.913Z,0.60
2019-05-21T07:10:37.228Z,0.73
2019-05-21T07:15:38.589Z,0.60
2019-05-21T07:20:40.679Z,0.70
2019-05-21T07:25:41.988Z,0.70
2019-05-21T07:30:43.313Z,0.57
2019-05-21T07:35:44.625Z,0.60
2019-05-21T07:40:45.939Z,0.53
2019-05-21T07:45:47.245Z,0.60
2019-05-21T07:50:48.563Z,0.70
2019-05-21T07:55:49.849Z,0.53
2019-05-21T08:00:51.168Z,0.50
2019-05-21T08:05:52.456Z,0.60
2019-05-21T08:10:53.776Z,0.43
2019-05-21T08:15:55.093Z,0.47
2019-05-21T08:20:56.437Z,0.40
2019-05-21T08:25:57.733Z,0.50
2019-05-21T08:31:02.212Z,0.50
2019-05-21T08:36:00.433Z,0.70
2019-05-21T08:41:01.765Z,0.57
2019-05-21T08:46:03.837Z,0.40
2019-05-21T08:51:05.159Z,0.50
2019-05-21T08:56:06.489Z,0.60
2019-05-21T09:01:08.634Z,0.50
2019-05-21T09:06:09.948Z,0.53
2019-05-21T09:11:11.242Z,0.40
2019-05-21T09:16:12.538Z,0.60
2019-05-21T09:21:13.863Z,0.40
2019-05-21T09:26:15.180Z,0.50
2019-05-21T09:31:17.256Z,0.53
2019-05-21T09:36:18.600Z,0.50
2019-05-21T09:41:19.909Z,0.70
2019-05-21T09:46:21.265Z,0.50
2019-05-21T09:51:22.564Z,0.43
2019-05-21T09:56:29.909Z,0.50
2019-05-21T10:01:31.229Z,0.70
2019-05-21T10:06:32.541Z,0.53
2019-05-21T10:11:34.564Z,0.60
2019-05-21T10:16:35.893Z,0.70
2019-05-21T10:21:37.957Z,0.60
2019-05-21T10:26:39.258Z,0.87
2019-05-21T10:31:40.623Z,0.80
2019-05-21T10:36:41.994Z,0.50
2019-05-21T10:41:46.020Z,0.60
2019-05-21T10:46:46.299Z,0.60
2019-05-21T10:51:47.656Z,0.60
2019-05-21T10:56:48.997Z,0.60
2019-05-21T11:01:55.285Z,0.60
2019-05-21T11:06:56.607Z,0.50
2019-05-21T11:11:58.717Z,0.60
2019-05-21T11:17:00.070Z,0.47
2019-05-21T11:22:01.385Z,0.70
2019-05-21T11:27:04.695Z,0.50
2019-05-21T11:32:04.141Z,0.60
2019-05-21T11:37:06.349Z,0.67
2019-05-21T11:42:07.860Z,0.70
2019-05-21T11:47:09.556Z,0.63
2019-05-21T11:52:10.946Z,0.50
2019-05-21T11:57:12.279Z,0.70
2019-05-21T12:02:13.628Z,0.70
2019-05-21T12:07:14.955Z,0.50
2019-05-21T12:12:16.247Z,0.40
2019-05-21T12:17:17.598Z,0.77
2019-05-21T12:22:18.909Z,0.70
2019-05-21T12:27:20.958Z,0.83
2019-05-21T12:32:22.296Z,0.80
2019-05-21T12:37:23.605Z,0.80
2019-05-21T12:42:24.928Z,0.80
2019-05-21T12:47:26.257Z,0.70
2019-05-21T12:52:28.301Z,0.80
2019-05-21T12:57:29.602Z,0.70
2019-05-21T13:02:31.715Z,0.90
2019-05-21T13:07:33.088Z,0.73
2019-05-21T13:12:34.398Z,1.37
2019-05-21T13:17:36.478Z,0.70
2019-05-21T13:22:37.777Z,1.00
2019-05-21T13:27:39.077Z,1.00
2019-05-21T13:32:43.660Z,0.80
2019-05-21T13:37:41.729Z,1.07
2019-05-21T13:42:43.790Z,0.80
2019-05-21T13:47:45.117Z,0.90
2019-05-21T13:52:46.439Z,1.10
2019-05-21T13:57:47.773Z,1.00
2019-05-21T14:02:49.107Z,1.17
2019-05-21T14:07:50.427Z,0.90
2019-05-21T14:12:52.073Z,1.00
2019-05-21T14:17:53.392Z,1.03
2019-05-21T14:22:54.735Z,1.10
2019-05-21T14:27:56.799Z,1.00
2019-05-21T14:32:58.109Z,1.10
2019-05-21T14:37:59.463Z,0.90
2019-05-21T14:43:01.083Z,1.17
2019-05-21T14:48:03.073Z,1.10
2019-05-21T14:53:04.382Z,0.80
2019-05-21T14:58:05.995Z,0.90
2019-05-21T15:03:07.321Z,0.93
2019-05-21T15:08:08.604Z,0.80
2019-05-21T15:13:10.038Z,0.90
2019-05-21T15:18:16.361Z,0.80
2019-05-21T15:23:13.508Z,0.90
2019-05-21T15:28:14.918Z,0.90
2019-05-21T15:33:16.258Z,1.10
2019-05-21T15:38:17.695Z,0.93
2019-05-21T15:48:34.873Z,0.80
2019-05-21T15:53:36.198Z,1.10
2019-05-21T15:58:38.274Z,0.93
2019-05-21T16:03:39.676Z,1.00
2019-05-21T16:09:01.721Z,0.90
2019-05-21T16:14:03.193Z,0.80
2019-05-21T16:19:05.289Z,0.90
2019-05-21T16:24:06.617Z,0.90
2019-05-21T16:29:07.922Z,0.97
2019-05-21T16:34:09.339Z,1.00
2019-05-21T16:39:11.848Z,1.00
2019-05-21T16:44:13.190Z,0.87
2019-05-21T16:49:14.557Z,0.90
2019-05-21T16:54:15.829Z,0.70
2019-05-21T16:59:17.137Z,0.70
2019-05-21T17:04:18.468Z,0.60
2019-05-21T17:09:19.820Z,1.00
2019-05-21T17:14:21.159Z,1.10
2019-05-21T17:19:23.198Z,1.10
2019-05-21T17:24:24.522Z,1.00
2019-05-21T17:29:25.837Z,0.70
2019-05-21T17:34:27.167Z,0.77
2019-05-21T17:39:28.477Z,0.70
2019-05-21T17:44:29.797Z,0.60
2019-05-21T17:49:31.118Z,0.70
2019-05-21T17:54:32.465Z,0.60
2019-05-21T17:59:33.786Z,0.70
2019-05-21T18:04:35.117Z,0.87
2019-05-21T18:09:40.631Z,0.80
2019-05-21T18:14:41.982Z,0.60
2019-05-21T18:19:50.654Z,0.90
2019-05-21T18:24:52.408Z,0.87
2019-05-21T18:29:53.764Z,1.20
2019-05-21T18:34:55.145Z,1.30
2019-05-21T18:39:56.540Z,1.27
2019-05-21T18:44:57.881Z,1.40
2019-05-21T18:49:59.211Z,1.40
2019-05-21T18:55:00.662Z,1.30
2019-05-21T19:00:02.075Z,1.37
2019-05-21T19:05:04.277Z,1.20
2019-05-21T19:10:06.562Z,1.20
2019-05-21T19:15:07.910Z,1.20
2019-05-21T19:20:09.947Z,1.00
2019-05-21T19:25:11.667Z,1.27
2019-05-21T19:30:13.434Z,1.27
2019-05-21T19:35:14.752Z,1.10
2019-05-21T19:40:16.049Z,1.63
2019-05-21T19:45:17.656Z,1.40
2019-05-21T19:50:18.972Z,1.50
2019-05-21T19:55:25.017Z,1.77
2019-05-21T20:00:29.392Z,2.47
2019-05-21T20:05:30.801Z,2.27
2019-05-21T20:10:34.185Z,2.23
2019-05-21T20:15:34.081Z,2.40
2019-05-21T20:20:35.454Z,2.37
2019-05-21T20:25:36.936Z,2.07
2019-05-21T20:30:38.406Z,2.20
2019-05-21T20:35:41.754Z,2.33
2019-05-21T20:40:46.978Z,2.60
2019-05-21T20:45:49.141Z,2.13
2019-05-21T20:50:52.901Z,1.67
2019-05-21T20:55:55.978Z,1.90
2019-05-21T21:01:07.985Z,2.03
2019-05-21T21:06:13.370Z,1.90
2019-05-21T21:11:17.422Z,1.70
2019-05-21T21:16:23.315Z,1.47
2019-05-21T21:21:28.945Z,1.53
2019-05-21T21:26:42.662Z,1.40
2019-05-21T21:31:44.860Z,1.60
2019-05-21T21:36:48.132Z,1.40
2019-05-21T21:41:51.588Z,1.40
2019-05-21T21:47:00.975Z,1.60
2019-05-21T21:52:03.497Z,1.30
2019-05-21T21:57:04.801Z,1.57
2019-05-21T22:02:14.052Z,1.60
2019-05-21T22:07:15.378Z,1.43
2019-05-21T22:12:24.113Z,1.80
2019-05-21T22:17:25.449Z,2.30
2019-05-21T22:22:31.276Z,2.00
2019-05-21T22:27:33.757Z,2.27
2019-05-21T22:32:35.144Z,2.50
2019-05-21T22:37:36.448Z,1.90
2019-05-21T22:42:38.961Z,1.83
2019-05-21T22:47:40.365Z,2.30
2019-05-21T22:52:41.743Z,2.17
2019-05-21T22:57:43.062Z,2.00
2019-05-21T23:02:44.416Z,2.00
2019-05-21T23:07:45.735Z,2.13
2019-05-21T23:12:47.779Z,1.60
2019-05-21T23:17:49.089Z,1.80
2019-05-21T23:22:50.467Z,2.00
2019-05-21T23:28:02.985Z,1.50
2019-05-21T23:33:12.961Z,2.07
2019-05-21T23:38:14.338Z,1.77
2019-05-21T23:43:15.675Z,1.67
2019-05-21T23:48:17.004Z,1.93
2019-05-21T23:53:18.313Z,1.90
2019-05-21T23:58:19.615Z,2.30
